sensor_id;sensor_type;location;lat;lon;timestamp;P1;durP1;ratioP1;P2;durP2;ratioP2
61188;SDS011;47054;39.716;2.904;2023-09-18T00:00:09;28.80;;;6.10;;
61188;SDS011;47054;39.716;2.904;2023-09-18T00:02:56;29.00;;;6.28;;
61188;SDS011;47054;39.716;2.904;2023-09-18T00:05:40;41.90;;;6.63;;
61188;SDS011;47054;39.716;2.904;2023-09-18T00:08:25;43.83;;;7.53;;
61188;SDS011;47054;39.716;2.904;2023-09-18T00:11:09;34.78;;;6.43;;
61188;SDS011;47054;39.716;2.904;2023-09-18T00:13:55;27.88;;;5.18;;
61188;SDS011;47054;39.716;2.904;2023-09-18T00:16:40;28.20;;;6.07;;
61188;SDS011;47054;39.716;2.904;2023-09-18T00:19:24;38.30;;;6.43;;
61188;SDS011;47054;39.716;2.904;2023-09-18T00:22:09;29.55;;;6.40;;
61188;SDS011;47054;39.716;2.904;2023-09-18T00:24:53;29.00;;;5.43;;
61188;SDS011;47054;39.716;2.904;2023-09-18T00:27:38;35.50;;;5.35;;
61188;SDS011;47054;39.716;2.904;2023-09-18T00:30:22;41.22;;;6.25;;
61188;SDS011;47054;39.716;2.904;2023-09-18T00:33:08;33.38;;;6.32;;
61188;SDS011;47054;39.716;2.904;2023-09-18T00:35:53;27.08;;;5.70;;
61188;SDS011;47054;39.716;2.904;2023-09-18T00:38:38;34.15;;;6.05;;
61188;SDS011;47054;39.716;2.904;2023-09-18T00:41:23;39.00;;;6.45;;
61188;SDS011;47054;39.716;2.904;2023-09-18T00:44:07;30.00;;;5.90;;
61188;SDS011;47054;39.716;2.904;2023-09-18T00:46:52;33.80;;;6.43;;
61188;SDS011;47054;39.716;2.904;2023-09-18T00:49:39;34.08;;;6.88;;
61188;SDS011;47054;39.716;2.904;2023-09-18T00:52:25;27.83;;;6.82;;
61188;SDS011;47054;39.716;2.904;2023-09-18T00:55:11;31.58;;;6.72;;
61188;SDS011;47054;39.716;2.904;2023-09-18T00:57:57;27.15;;;6.35;;
61188;SDS011;47054;39.716;2.904;2023-09-18T01:00:44;38.38;;;6.82;;
61188;SDS011;47054;39.716;2.904;2023-09-18T01:03:29;24.23;;;6.53;;
61188;SDS011;47054;39.716;2.904;2023-09-18T01:06:14;28.65;;;5.88;;
61188;SDS011;47054;39.716;2.904;2023-09-18T01:08:59;28.05;;;6.25;;
61188;SDS011;47054;39.716;2.904;2023-09-18T01:18:28;33.30;;;5.22;;
61188;SDS011;47054;39.716;2.904;2023-09-18T01:21:13;21.88;;;4.45;;
61188;SDS011;47054;39.716;2.904;2023-09-18T01:23:58;33.53;;;5.13;;
61188;SDS011;47054;39.716;2.904;2023-09-18T01:26:42;26.40;;;5.38;;
61188;SDS011;47054;39.716;2.904;2023-09-18T01:29:27;23.65;;;3.97;;
61188;SDS011;47054;39.716;2.904;2023-09-18T01:32:13;23.77;;;4.43;;
61188;SDS011;47054;39.716;2.904;2023-09-18T01:34:59;30.85;;;5.45;;
61188;SDS011;47054;39.716;2.904;2023-09-18T01:37:46;36.55;;;5.95;;
61188;SDS011;47054;39.716;2.904;2023-09-18T01:40:30;20.48;;;4.03;;
61188;SDS011;47054;39.716;2.904;2023-09-18T01:43:16;38.63;;;5.72;;
61188;SDS011;47054;39.716;2.904;2023-09-18T01:46:01;26.55;;;5.90;;
61188;SDS011;47054;39.716;2.904;2023-09-18T01:48:47;34.70;;;5.80;;
61188;SDS011;47054;39.716;2.904;2023-09-18T01:51:31;21.30;;;4.63;;
61188;SDS011;47054;39.716;2.904;2023-09-18T01:54:16;30.85;;;5.68;;
61188;SDS011;47054;39.716;2.904;2023-09-18T01:57:01;29.10;;;5.05;;
61188;SDS011;47054;39.716;2.904;2023-09-18T01:59:47;24.10;;;5.32;;
61188;SDS011;47054;39.716;2.904;2023-09-18T02:02:31;30.80;;;5.88;;
61188;SDS011;47054;39.716;2.904;2023-09-18T02:05:16;21.65;;;4.45;;
61188;SDS011;47054;39.716;2.904;2023-09-18T02:08:01;17.73;;;4.00;;
61188;SDS011;47054;39.716;2.904;2023-09-18T02:10:47;27.58;;;5.28;;
61188;SDS011;47054;39.716;2.904;2023-09-18T02:13:31;29.77;;;5.35;;
61188;SDS011;47054;39.716;2.904;2023-09-18T02:16:15;22.70;;;4.45;;
61188;SDS011;47054;39.716;2.904;2023-09-18T02:19:00;24.65;;;4.82;;
61188;SDS011;47054;39.716;2.904;2023-09-18T02:21:45;20.90;;;5.82;;
61188;SDS011;47054;39.716;2.904;2023-09-18T02:24:31;23.10;;;4.95;;
61188;SDS011;47054;39.716;2.904;2023-09-18T02:27:15;25.02;;;5.00;;
61188;SDS011;47054;39.716;2.904;2023-09-18T02:30:03;24.98;;;5.45;;
61188;SDS011;47054;39.716;2.904;2023-09-18T02:32:49;34.78;;;6.97;;
61188;SDS011;47054;39.716;2.904;2023-09-18T02:35:33;27.35;;;5.68;;
61188;SDS011;47054;39.716;2.904;2023-09-18T02:38:18;26.88;;;5.72;;
61188;SDS011;47054;39.716;2.904;2023-09-18T02:41:02;25.85;;;5.93;;
61188;SDS011;47054;39.716;2.904;2023-09-18T02:43:47;29.15;;;5.60;;
61188;SDS011;47054;39.716;2.904;2023-09-18T02:46:31;29.45;;;5.65;;
61188;SDS011;47054;39.716;2.904;2023-09-18T02:49:16;26.17;;;6.60;;
61188;SDS011;47054;39.716;2.904;2023-09-18T02:52:00;39.00;;;5.75;;
61188;SDS011;47054;39.716;2.904;2023-09-18T02:54:45;36.90;;;6.88;;
61188;SDS011;47054;39.716;2.904;2023-09-18T02:57:30;35.50;;;6.75;;
61188;SDS011;47054;39.716;2.904;2023-09-18T03:00:15;28.98;;;6.10;;
61188;SDS011;47054;39.716;2.904;2023-09-18T03:02:59;25.55;;;5.70;;
61188;SDS011;47054;39.716;2.904;2023-09-18T03:05:44;38.80;;;6.15;;
61188;SDS011;47054;39.716;2.904;2023-09-18T03:08:28;40.90;;;6.63;;
61188;SDS011;47054;39.716;2.904;2023-09-18T03:11:13;31.58;;;7.00;;
61188;SDS011;47054;39.716;2.904;2023-09-18T03:14:00;35.65;;;6.38;;
61188;SDS011;47054;39.716;2.904;2023-09-18T03:16:45;27.98;;;6.20;;
61188;SDS011;47054;39.716;2.904;2023-09-18T03:19:30;27.38;;;6.43;;
61188;SDS011;47054;39.716;2.904;2023-09-18T03:22:15;29.27;;;5.95;;
61188;SDS011;47054;39.716;2.904;2023-09-18T03:25:00;46.03;;;6.85;;
61188;SDS011;47054;39.716;2.904;2023-09-18T03:27:44;25.23;;;5.97;;
61188;SDS011;47054;39.716;2.904;2023-09-18T03:30:29;37.22;;;6.75;;
61188;SDS011;47054;39.716;2.904;2023-09-18T03:33:14;27.23;;;6.10;;
61188;SDS011;47054;39.716;2.904;2023-09-18T03:35:58;35.13;;;6.22;;
61188;SDS011;47054;39.716;2.904;2023-09-18T03:38:45;28.35;;;6.78;;
61188;SDS011;47054;39.716;2.904;2023-09-18T03:41:30;33.03;;;7.40;;
61188;SDS011;47054;39.716;2.904;2023-09-18T03:44:19;33.22;;;6.65;;
61188;SDS011;47054;39.716;2.904;2023-09-18T03:47:03;34.17;;;6.45;;
61188;SDS011;47054;39.716;2.904;2023-09-18T03:49:49;36.65;;;7.78;;
61188;SDS011;47054;39.716;2.904;2023-09-18T03:52:34;32.67;;;8.13;;
61188;SDS011;47054;39.716;2.904;2023-09-18T03:55:18;22.58;;;5.70;;
61188;SDS011;47054;39.716;2.904;2023-09-18T03:58:03;26.80;;;6.18;;
61188;SDS011;47054;39.716;2.904;2023-09-18T04:00:49;29.30;;;6.30;;
61188;SDS011;47054;39.716;2.904;2023-09-18T04:03:33;25.88;;;5.82;;
61188;SDS011;47054;39.716;2.904;2023-09-18T04:06:18;27.17;;;6.75;;
61188;SDS011;47054;39.716;2.904;2023-09-18T04:09:04;41.08;;;6.70;;
61188;SDS011;47054;39.716;2.904;2023-09-18T04:11:49;28.38;;;6.25;;
61188;SDS011;47054;39.716;2.904;2023-09-18T04:14:33;26.83;;;6.43;;
61188;SDS011;47054;39.716;2.904;2023-09-18T04:17:19;31.02;;;6.10;;
61188;SDS011;47054;39.716;2.904;2023-09-18T04:20:05;25.20;;;5.68;;
61188;SDS011;47054;39.716;2.904;2023-09-18T04:26:01;31.25;;;6.95;;
61188;SDS011;47054;39.716;2.904;2023-09-18T04:28:45;23.00;;;6.00;;
61188;SDS011;47054;39.716;2.904;2023-09-18T04:31:30;31.55;;;6.43;;
61188;SDS011;47054;39.716;2.904;2023-09-18T04:34:16;22.02;;;5.82;;
61188;SDS011;47054;39.716;2.904;2023-09-18T04:37:00;30.20;;;6.43;;
61188;SDS011;47054;39.716;2.904;2023-09-18T04:39:46;21.13;;;4.78;;
61188;SDS011;47054;39.716;2.904;2023-09-18T04:42:31;23.83;;;6.38;;
61188;SDS011;47054;39.716;2.904;2023-09-18T04:45:16;24.52;;;5.68;;
61188;SDS011;47054;39.716;2.904;2023-09-18T04:48:00;27.55;;;5.78;;
61188;SDS011;47054;39.716;2.904;2023-09-18T04:50:45;20.80;;;6.45;;
61188;SDS011;47054;39.716;2.904;2023-09-18T04:53:29;31.48;;;7.22;;
61188;SDS011;47054;39.716;2.904;2023-09-18T04:56:15;33.15;;;5.85;;
61188;SDS011;47054;39.716;2.904;2023-09-18T17:59:14;9.25;;;2.65;;
61188;SDS011;47054;39.716;2.904;2023-09-18T18:01:59;6.40;;;2.20;;
61188;SDS011;47054;39.716;2.904;2023-09-18T18:04:44;5.80;;;2.38;;
61188;SDS011;47054;39.716;2.904;2023-09-18T18:07:29;5.07;;;2.60;;
61188;SDS011;47054;39.716;2.904;2023-09-18T18:10:13;5.45;;;2.15;;
61188;SDS011;47054;39.716;2.904;2023-09-18T18:12:58;7.10;;;2.10;;
61188;SDS011;47054;39.716;2.904;2023-09-18T18:15:43;4.60;;;2.42;;
61188;SDS011;47054;39.716;2.904;2023-09-18T18:18:28;6.55;;;2.67;;
61188;SDS011;47054;39.716;2.904;2023-09-18T18:21:12;5.63;;;2.17;;
61188;SDS011;47054;39.716;2.904;2023-09-18T18:23:57;7.75;;;2.83;;
61188;SDS011;47054;39.716;2.904;2023-09-18T18:26:41;7.75;;;2.72;;
61188;SDS011;47054;39.716;2.904;2023-09-18T18:29:26;8.25;;;3.00;;
61188;SDS011;47054;39.716;2.904;2023-09-18T18:32:10;3.72;;;2.22;;
61188;SDS011;47054;39.716;2.904;2023-09-18T18:34:55;7.93;;;2.53;;
61188;SDS011;47054;39.716;2.904;2023-09-18T18:37:40;4.82;;;2.50;;
61188;SDS011;47054;39.716;2.904;2023-09-18T18:40:24;4.72;;;2.05;;
61188;SDS011;47054;39.716;2.904;2023-09-18T18:43:10;9.18;;;2.60;;
61188;SDS011;47054;39.716;2.904;2023-09-18T18:45:59;6.68;;;2.60;;
61188;SDS011;47054;39.716;2.904;2023-09-18T18:48:44;5.55;;;2.20;;
61188;SDS011;47054;39.716;2.904;2023-09-18T18:51:30;6.00;;;2.78;;
61188;SDS011;47054;39.716;2.904;2023-09-18T18:54:15;5.63;;;2.20;;
61188;SDS011;47054;39.716;2.904;2023-09-18T18:57:00;7.22;;;2.53;;
61188;SDS011;47054;39.716;2.904;2023-09-18T18:59:44;10.80;;;2.75;;
61188;SDS011;47054;39.716;2.904;2023-09-18T19:02:29;10.80;;;3.45;;
61188;SDS011;47054;39.716;2.904;2023-09-18T19:05:13;7.45;;;4.57;;
61188;SDS011;47054;39.716;2.904;2023-09-18T19:07:58;7.55;;;3.03;;
61188;SDS011;47054;39.716;2.904;2023-09-18T19:10:42;6.50;;;2.60;;
61188;SDS011;47054;39.716;2.904;2023-09-18T19:13:27;6.65;;;3.45;;
61188;SDS011;47054;39.716;2.904;2023-09-18T19:16:12;7.85;;;2.58;;
61188;SDS011;47054;39.716;2.904;2023-09-18T19:18:57;6.35;;;2.42;;
61188;SDS011;47054;39.716;2.904;2023-09-18T19:21:42;6.53;;;2.90;;
61188;SDS011;47054;39.716;2.904;2023-09-18T19:24:26;6.70;;;2.90;;
61188;SDS011;47054;39.716;2.904;2023-09-18T19:27:11;8.75;;;3.97;;
61188;SDS011;47054;39.716;2.904;2023-09-18T19:29:56;7.00;;;4.25;;
61188;SDS011;47054;39.716;2.904;2023-09-18T19:32:40;9.80;;;3.05;;
61188;SDS011;47054;39.716;2.904;2023-09-18T19:35:24;7.13;;;3.35;;
61188;SDS011;47054;39.716;2.904;2023-09-18T19:38:09;5.20;;;2.97;;
61188;SDS011;47054;39.716;2.904;2023-09-18T19:40:54;7.30;;;3.85;;
61188;SDS011;47054;39.716;2.904;2023-09-18T19:43:38;6.93;;;2.80;;
61188;SDS011;47054;39.716;2.904;2023-09-18T19:46:23;5.13;;;2.63;;
61188;SDS011;47054;39.716;2.904;2023-09-18T19:49:08;5.88;;;2.55;;
61188;SDS011;47054;39.716;2.904;2023-09-18T19:51:52;6.97;;;2.28;;
61188;SDS011;47054;39.716;2.904;2023-09-18T19:54:37;6.80;;;2.55;;
61188;SDS011;47054;39.716;2.904;2023-09-18T19:57:22;8.27;;;3.03;;
61188;SDS011;47054;39.716;2.904;2023-09-18T20:00:06;3.80;;;2.05;;
61188;SDS011;47054;39.716;2.904;2023-09-18T20:03:00;11.57;;;3.33;;
61188;SDS011;47054;39.716;2.904;2023-09-18T20:05:45;8.10;;;3.10;;
61188;SDS011;47054;39.716;2.904;2023-09-18T20:08:31;6.13;;;2.72;;
61188;SDS011;47054;39.716;2.904;2023-09-18T20:11:16;6.53;;;2.78;;
61188;SDS011;47054;39.716;2.904;2023-09-18T20:14:02;5.80;;;2.70;;
61188;SDS011;47054;39.716;2.904;2023-09-18T20:16:48;8.00;;;3.25;;
61188;SDS011;47054;39.716;2.904;2023-09-18T20:19:32;8.80;;;2.78;;
61188;SDS011;47054;39.716;2.904;2023-09-18T20:22:17;8.80;;;2.90;;
61188;SDS011;47054;39.716;2.904;2023-09-18T20:25:01;7.35;;;3.58;;
61188;SDS011;47054;39.716;2.904;2023-09-18T20:27:46;6.07;;;3.35;;
61188;SDS011;47054;39.716;2.904;2023-09-18T20:30:31;12.50;;;4.00;;
61188;SDS011;47054;39.716;2.904;2023-09-18T20:33:15;9.20;;;3.13;;
61188;SDS011;47054;39.716;2.904;2023-09-18T20:36:00;5.55;;;3.30;;
61188;SDS011;47054;39.716;2.904;2023-09-18T20:38:46;14.80;;;3.53;;
61188;SDS011;47054;39.716;2.904;2023-09-18T20:41:31;6.93;;;2.85;;
61188;SDS011;47054;39.716;2.904;2023-09-18T20:44:16;7.80;;;3.22;;
61188;SDS011;47054;39.716;2.904;2023-09-18T20:47:00;14.10;;;3.47;;
61188;SDS011;47054;39.716;2.904;2023-09-18T20:49:45;7.05;;;2.88;;
61188;SDS011;47054;39.716;2.904;2023-09-18T20:52:32;11.98;;;3.13;;
61188;SDS011;47054;39.716;2.904;2023-09-18T20:55:20;5.97;;;2.92;;
61188;SDS011;47054;39.716;2.904;2023-09-18T20:58:05;5.65;;;2.70;;
61188;SDS011;47054;39.716;2.904;2023-09-18T21:00:49;4.63;;;2.13;;
61188;SDS011;47054;39.716;2.904;2023-09-18T21:03:35;5.65;;;2.72;;
61188;SDS011;47054;39.716;2.904;2023-09-18T21:06:20;4.95;;;2.67;;
61188;SDS011;47054;39.716;2.904;2023-09-18T21:09:05;5.38;;;2.35;;
61188;SDS011;47054;39.716;2.904;2023-09-18T21:11:51;3.58;;;2.28;;
61188;SDS011;47054;39.716;2.904;2023-09-18T21:14:38;5.80;;;2.67;;
61188;SDS011;47054;39.716;2.904;2023-09-18T21:17:22;6.68;;;2.30;;
61188;SDS011;47054;39.716;2.904;2023-09-18T21:20:07;8.95;;;2.78;;
61188;SDS011;47054;39.716;2.904;2023-09-18T21:22:53;5.55;;;2.38;;
61188;SDS011;47054;39.716;2.904;2023-09-18T21:25:38;7.32;;;2.85;;
61188;SDS011;47054;39.716;2.904;2023-09-18T21:28:22;4.45;;;2.65;;
61188;SDS011;47054;39.716;2.904;2023-09-18T21:31:07;6.60;;;2.72;;
61188;SDS011;47054;39.716;2.904;2023-09-18T21:33:54;5.15;;;2.10;;
61188;SDS011;47054;39.716;2.904;2023-09-18T21:36:38;5.05;;;2.30;;
61188;SDS011;47054;39.716;2.904;2023-09-18T21:39:23;4.88;;;2.30;;
61188;SDS011;47054;39.716;2.904;2023-09-18T21:42:07;5.80;;;2.53;;
61188;SDS011;47054;39.716;2.904;2023-09-18T21:44:52;4.10;;;2.28;;
61188;SDS011;47054;39.716;2.904;2023-09-18T21:47:38;5.43;;;2.40;;
61188;SDS011;47054;39.716;2.904;2023-09-18T21:50:22;6.05;;;2.40;;
61188;SDS011;47054;39.716;2.904;2023-09-18T21:53:08;5.63;;;2.30;;
61188;SDS011;47054;39.716;2.904;2023-09-18T21:55:53;3.80;;;2.20;;
61188;SDS011;47054;39.716;2.904;2023-09-18T21:58:38;4.05;;;2.17;;
61188;SDS011;47054;39.716;2.904;2023-09-18T22:01:23;5.28;;;2.30;;
61188;SDS011;47054;39.716;2.904;2023-09-18T22:04:08;10.75;;;2.70;;
61188;SDS011;47054;39.716;2.904;2023-09-18T22:06:53;5.13;;;2.20;;
61188;SDS011;47054;39.716;2.904;2023-09-18T22:09:38;5.15;;;2.60;;
61188;SDS011;47054;39.716;2.904;2023-09-18T22:12:23;5.45;;;2.28;;
61188;SDS011;47054;39.716;2.904;2023-09-18T22:15:08;3.05;;;2.13;;
61188;SDS011;47054;39.716;2.904;2023-09-18T22:17:53;4.22;;;2.53;;
61188;SDS011;47054;39.716;2.904;2023-09-18T22:20:38;3.90;;;2.25;;
61188;SDS011;47054;39.716;2.904;2023-09-18T22:23:23;3.10;;;2.05;;
61188;SDS011;47054;39.716;2.904;2023-09-18T22:26:11;3.83;;;1.80;;
61188;SDS011;47054;39.716;2.904;2023-09-18T22:28:56;5.10;;;2.13;;
61188;SDS011;47054;39.716;2.904;2023-09-18T22:31:41;5.10;;;2.50;;
61188;SDS011;47054;39.716;2.904;2023-09-18T22:34:25;4.07;;;1.90;;
61188;SDS011;47054;39.716;2.904;2023-09-18T22:37:11;4.72;;;2.10;;
61188;SDS011;47054;39.716;2.904;2023-09-18T22:55:45;4.28;;;2.17;;
61188;SDS011;47054;39.716;2.904;2023-09-18T22:58:29;3.45;;;2.40;;
61188;SDS011;47054;39.716;2.904;2023-09-18T23:01:14;5.13;;;2.20;;
61188;SDS011;47054;39.716;2.904;2023-09-18T23:03:59;4.18;;;2.28;;
61188;SDS011;47054;39.716;2.904;2023-09-18T23:06:44;6.30;;;2.17;;
61188;SDS011;47054;39.716;2.904;2023-09-18T23:09:29;5.75;;;2.15;;
61188;SDS011;47054;39.716;2.904;2023-09-18T23:12:15;3.55;;;1.85;;
61188;SDS011;47054;39.716;2.904;2023-09-18T23:15:00;3.15;;;1.88;;
61188;SDS011;47054;39.716;2.904;2023-09-18T23:17:46;2.40;;;1.70;;
61188;SDS011;47054;39.716;2.904;2023-09-18T23:20:31;5.38;;;2.10;;
61188;SDS011;47054;39.716;2.904;2023-09-18T23:23:16;3.15;;;1.75;;
61188;SDS011;47054;39.716;2.904;2023-09-18T23:26:02;3.95;;;2.03;;
61188;SDS011;47054;39.716;2.904;2023-09-18T23:28:46;3.78;;;2.13;;
61188;SDS011;47054;39.716;2.904;2023-09-18T23:31:31;4.53;;;1.83;;
61188;SDS011;47054;39.716;2.904;2023-09-18T23:34:16;3.17;;;1.88;;
61188;SDS011;47054;39.716;2.904;2023-09-18T23:37:00;8.07;;;3.33;;
61188;SDS011;47054;39.716;2.904;2023-09-18T23:39:47;3.15;;;2.00;;
61188;SDS011;47054;39.716;2.904;2023-09-18T23:42:33;3.03;;;1.83;;
61188;SDS011;47054;39.716;2.904;2023-09-18T23:45:18;4.15;;;2.03;;
61188;SDS011;47054;39.716;2.904;2023-09-18T23:50:54;5.97;;;2.05;;
61188;SDS011;47054;39.716;2.904;2023-09-18T23:53:43;4.40;;;2.00;;
61188;SDS011;47054;39.716;2.904;2023-09-18T23:56:27;6.78;;;2.17;;
61188;SDS011;47054;39.716;2.904;2023-09-18T23:59:13;4.28;;;2.00;;
